createdAt,value
2022-11-25T00:00:46.983Z,100669.69
2022-11-25T00:03:52.665Z,100680.69
2022-11-25T00:06:56.666Z,100682.06
2022-11-25T00:10:07.785Z,100676.72
2022-11-25T00:13:10.816Z,100675.41
2022-11-25T00:16:16.690Z,100670.84
2022-11-25T00:19:19.465Z,100671.56
2022-11-25T00:22:22.894Z,100670.47
2022-11-25T00:25:25.791Z,100672.06
2022-11-25T00:28:29.289Z,100675.72
2022-11-25T00:31:34.750Z,100678.50
2022-11-25T00:34:38.117Z,100684.75
2022-11-25T00:37:41.255Z,100684.25
2022-11-25T00:41:05.065Z,100688.81
2022-11-25T00:44:30.384Z,100691.72
2022-11-25T00:47:40.012Z,100685.16
2022-11-25T00:50:43.574Z,100687.03
2022-11-25T00:53:46.527Z,100683.56
2022-11-25T00:56:49.564Z,100680.69
2022-11-25T00:59:53.428Z,100678.72
2022-11-25T01:02:56.796Z,100685.44
2022-11-25T01:06:05.091Z,100687.53
2022-11-25T01:09:12.008Z,100691.47
2022-11-25T01:12:16.059Z,100695.44
2022-11-25T01:15:18.802Z,100704.16
2022-11-25T01:18:23.095Z,100717.12
2022-11-25T01:21:28.344Z,100722.28
2022-11-25T01:24:31.374Z,100721.53
2022-11-25T01:27:34.084Z,100725.06
2022-11-25T01:30:41.042Z,100726.13
2022-11-25T01:33:45.100Z,100724.00
2022-11-25T01:36:48.550Z,100716.06
2022-11-25T01:39:51.513Z,100719.13
2022-11-25T01:42:54.642Z,100719.59
2022-11-25T01:46:28.239Z,100710.31
2022-11-25T01:49:50.158Z,100713.44
2022-11-25T01:52:56.086Z,100715.91
2022-11-25T01:56:03.776Z,100716.38
2022-11-25T01:59:09.280Z,100719.28
2022-11-25T02:02:13.061Z,100719.19
2022-11-25T02:05:28.452Z,100714.13
2022-11-25T02:08:36.861Z,100724.28
2022-11-25T02:11:44.268Z,100726.38
2022-11-25T02:14:49.600Z,100735.78
2022-11-25T02:17:54.263Z,100738.94
2022-11-25T02:20:57.745Z,100731.56
2022-11-25T02:24:10.781Z,100733.41
2022-11-25T02:27:13.940Z,100735.25
2022-11-25T02:30:19.370Z,100735.56
2022-11-25T02:33:22.337Z,100734.12
2022-11-25T02:36:25.083Z,100740.62
2022-11-25T02:39:28.761Z,100744.44
2022-11-25T02:42:32.975Z,100742.00
2022-11-25T02:45:49.151Z,100741.91
2022-11-25T02:49:08.509Z,100733.50
2022-11-25T02:52:13.748Z,100744.12
2022-11-25T02:55:18.800Z,100738.19
2022-11-25T02:58:21.957Z,100731.16
2022-11-25T03:01:27.744Z,100742.00
2022-11-25T03:04:31.357Z,100742.69
2022-11-25T03:07:34.151Z,100748.50
2022-11-25T03:10:37.955Z,100754.31
2022-11-25T03:13:41.464Z,100749.94
2022-11-25T03:16:45.076Z,100752.63
2022-11-25T03:19:47.907Z,100748.16
2022-11-25T03:22:51.298Z,100751.63
2022-11-25T03:25:54.500Z,100746.25
2022-11-25T03:28:57.587Z,100757.97
2022-11-25T03:32:00.141Z,100764.44
2022-11-25T03:35:05.732Z,100769.78
2022-11-25T03:38:09.015Z,100769.91
2022-11-25T03:41:11.900Z,100778.19
2022-11-25T03:44:15.022Z,100777.44
2022-11-25T03:47:18.922Z,100787.84
2022-11-25T03:50:22.595Z,100797.44
2022-11-25T03:53:29.945Z,100801.03
2022-11-25T03:56:37.719Z,100805.06
2022-11-25T03:59:42.998Z,100810.19
2022-11-25T04:02:46.052Z,100809.97
2022-11-25T04:05:49.584Z,100805.28
2022-11-25T04:08:52.433Z,100808.88
2022-11-25T04:12:16.626Z,100805.06
2022-11-25T04:15:21.953Z,100806.63
2022-11-25T04:18:25.692Z,100804.41
2022-11-25T04:21:30.129Z,100812.34
2022-11-25T04:24:33.734Z,100824.06
2022-11-25T04:27:38.813Z,100827.88
2022-11-25T04:30:42.396Z,100833.47
2022-11-25T04:33:49.612Z,100833.91
2022-11-25T04:36:55.648Z,100841.63
2022-11-25T04:39:58.358Z,100847.00
2022-11-25T04:43:10.395Z,100853.59
2022-11-25T04:46:22.926Z,100856.16
2022-11-25T04:49:27.786Z,100856.28
2022-11-25T04:52:30.891Z,100864.78
2022-11-25T04:55:34.095Z,100865.00
2022-11-25T04:58:59.223Z,100866.56
2022-11-25T05:02:15.985Z,100860.56
2022-11-25T05:05:19.221Z,100864.47
2022-11-25T05:08:25.964Z,100871.50
2022-11-25T05:11:30.671Z,100874.09
2022-11-25T05:14:36.318Z,100875.66
2022-11-25T05:17:40.075Z,100876.44
2022-11-25T05:20:48.809Z,100885.72
2022-11-25T05:23:56.156Z,100884.84
2022-11-25T05:26:59.221Z,100895.25
2022-11-25T05:30:02.630Z,100892.34
2022-11-25T05:33:06.320Z,100899.03
2022-11-25T05:36:10.305Z,100904.03
2022-11-25T05:39:15.685Z,100912.22
2022-11-25T05:42:21.329Z,100915.34
2022-11-25T05:45:27.749Z,100923.62
2022-11-25T05:48:39.824Z,100919.81
2022-11-25T05:51:43.785Z,100923.72
2022-11-25T05:54:47.727Z,100927.28
2022-11-25T05:57:51.899Z,100935.34
2022-11-25T06:00:58.627Z,100940.38
2022-11-25T06:04:05.602Z,100948.44
2022-11-25T06:07:08.312Z,100945.53
2022-11-25T06:10:12.477Z,100947.22
2022-11-25T06:13:23.788Z,100956.41
2022-11-25T06:16:29.627Z,100956.97
2022-11-25T06:19:36.170Z,100958.56
2022-11-25T06:22:39.448Z,100957.47
2022-11-25T06:25:46.604Z,100967.53
2022-11-25T06:28:57.735Z,100962.03
2022-11-25T06:32:00.737Z,100971.09
2022-11-25T06:35:08.140Z,100974.78
2022-11-25T06:38:13.062Z,100980.63
2022-11-25T06:41:18.625Z,100980.72
2022-11-25T06:44:26.531Z,100978.28
2022-11-25T06:47:31.864Z,100984.19
2022-11-25T06:50:35.474Z,100984.41
2022-11-25T06:53:39.145Z,100984.75
2022-11-25T06:56:43.670Z,100976.44
2022-11-25T06:59:49.433Z,100984.94
2022-11-25T07:02:58.000Z,100989.84
2022-11-25T07:06:11.988Z,100977.16
2022-11-25T07:09:20.217Z,100986.72
2022-11-25T07:12:24.725Z,100987.72
2022-11-25T07:15:31.737Z,100984.44
2022-11-25T07:18:38.737Z,100987.38
2022-11-25T07:21:45.524Z,100989.00
2022-11-25T07:24:49.063Z,100992.63
2022-11-25T07:27:55.746Z,100988.12
2022-11-25T07:31:23.145Z,100988.53
2022-11-25T07:34:26.435Z,100984.62
2022-11-25T07:37:31.252Z,100988.41
2022-11-25T07:40:33.931Z,100997.38
2022-11-25T07:43:48.709Z,100986.88
2022-11-25T07:46:52.838Z,100987.91
2022-11-25T07:49:57.598Z,100981.16
2022-11-25T07:53:03.737Z,100996.87
2022-11-25T07:56:12.430Z,100991.22
2022-11-25T07:59:18.981Z,100994.16
2022-11-25T08:02:29.613Z,100987.19
2022-11-25T08:05:34.207Z,100990.03
2022-11-25T08:08:38.503Z,101007.72
2022-11-25T08:11:42.417Z,101011.50
2022-11-25T08:14:46.621Z,101012.44
2022-11-25T08:17:52.726Z,101011.16
2022-11-25T08:21:07.590Z,101013.03
2022-11-25T08:24:16.156Z,101008.97
2022-11-25T08:27:22.037Z,101008.56
2022-11-25T08:30:29.569Z,101022.16
2022-11-25T08:33:34.597Z,101018.69
2022-11-25T08:36:38.037Z,101026.41
2022-11-25T08:39:52.251Z,101025.12
2022-11-25T08:42:56.287Z,101028.78
2022-11-25T08:45:59.158Z,101021.62
2022-11-25T08:49:07.257Z,101019.59
2022-11-25T08:52:15.050Z,101026.44
2022-11-25T08:55:20.049Z,101011.59
2022-11-25T08:58:24.815Z,101015.50
2022-11-25T09:01:28.496Z,101017.91
2022-11-25T09:04:33.857Z,101020.44
2022-11-25T09:07:37.625Z,101021.44
2022-11-25T09:10:51.714Z,101026.47
2022-11-25T09:13:55.765Z,101018.97
2022-11-25T09:17:02.163Z,101018.75
2022-11-25T09:20:06.733Z,101022.38
2022-11-25T09:23:10.196Z,101028.03
2022-11-25T09:26:24.737Z,101033.66
2022-11-25T09:29:31.812Z,101039.53
2022-11-25T09:32:36.517Z,101041.75
2022-11-25T09:35:41.824Z,101038.56
2022-11-25T09:38:54.893Z,101036.81
2022-11-25T09:42:44.457Z,101028.34
2022-11-25T09:46:28.712Z,101026.81
2022-11-25T09:49:53.507Z,101013.47
2022-11-25T09:53:09.482Z,101019.19
2022-11-25T09:56:43.874Z,101023.25
2022-11-25T10:00:18.008Z,101025.31
2022-11-25T10:03:43.455Z,101019.19
2022-11-25T10:06:55.548Z,101013.03
2022-11-25T10:10:03.799Z,101012.09
2022-11-25T10:13:48.734Z,101008.31
2022-11-25T10:17:21.521Z,101002.94
2022-11-25T10:20:39.520Z,101002.66
2022-11-25T10:23:50.591Z,101004.16
2022-11-25T10:27:08.596Z,101021.38
2022-11-25T10:30:17.739Z,101021.28
2022-11-25T10:33:29.685Z,101016.75
2022-11-25T10:36:36.753Z,101019.34
2022-11-25T10:39:40.795Z,101014.81
2022-11-25T10:42:48.359Z,101020.84
2022-11-25T10:45:59.623Z,101024.91
2022-11-25T10:49:34.559Z,101033.59
2022-11-25T10:52:44.656Z,101033.00
2022-11-25T10:56:04.563Z,101031.47
2022-11-25T10:59:30.691Z,101020.22
2022-11-25T11:02:34.654Z,101028.25
2022-11-25T11:05:46.808Z,101031.06
2022-11-25T11:09:03.521Z,101032.22
2022-11-25T11:12:21.053Z,101028.66
2022-11-25T11:15:27.013Z,101028.59
2022-11-25T11:18:46.513Z,101027.72
2022-11-25T11:21:50.148Z,101026.91
2022-11-25T11:25:07.555Z,101025.44
2022-11-25T11:28:30.893Z,101030.94
2022-11-25T11:32:01.469Z,101022.06
2022-11-25T11:35:21.504Z,101015.59
2022-11-25T11:38:44.494Z,101019.66
2022-11-25T11:42:05.098Z,101017.06
2022-11-25T11:45:35.324Z,101018.16
2022-11-25T11:48:43.860Z,101022.59
2022-11-25T11:52:01.944Z,101024.44
2022-11-25T11:55:25.884Z,101020.06
2022-11-25T11:58:46.049Z,101017.75
2022-11-25T12:01:59.678Z,101015.72
2022-11-25T12:05:12.034Z,101018.12
2022-11-25T12:08:26.944Z,101008.00
2022-11-25T12:11:40.245Z,101011.44
2022-11-25T12:14:51.200Z,101020.50
2022-11-25T12:18:14.797Z,101019.53
2022-11-25T12:21:36.239Z,101016.13
2022-11-25T12:24:56.759Z,101015.16
2022-11-25T12:28:08.079Z,101018.59
2022-11-25T12:31:25.702Z,101024.97
2022-11-25T12:34:46.578Z,101019.81
2022-11-25T12:38:04.579Z,101017.47
2022-11-25T12:41:18.888Z,101009.91
2022-11-25T12:44:36.836Z,101007.69
2022-11-25T12:47:41.074Z,101003.88
2022-11-25T12:51:09.458Z,101000.72
2022-11-25T12:54:33.357Z,101006.31
2022-11-25T12:57:55.886Z,101009.47
2022-11-25T13:01:26.374Z,101007.94
2022-11-25T13:04:48.746Z,101009.41
2022-11-25T13:08:06.328Z,101000.78
2022-11-25T13:11:36.371Z,101004.94
2022-11-25T13:15:04.054Z,100995.47
2022-11-25T13:18:14.678Z,101003.37
2022-11-25T13:21:23.531Z,101004.38
2022-11-25T13:24:34.226Z,101011.72
2022-11-25T13:27:40.310Z,101013.91
2022-11-25T13:30:55.619Z,101009.19
2022-11-25T13:34:07.644Z,101013.09
2022-11-25T13:37:36.623Z,101010.19
2022-11-25T13:40:41.844Z,101020.31
2022-11-25T13:44:05.465Z,101025.16
2022-11-25T13:47:39.091Z,101025.97
2022-11-25T13:54:27.679Z,101022.84
2022-11-25T13:57:34.923Z,101024.03
2022-11-25T14:00:43.116Z,101031.44
2022-11-25T14:03:50.545Z,101030.16
2022-11-25T14:06:55.211Z,101030.50
2022-11-25T14:10:25.889Z,101037.25
2022-11-25T14:13:47.018Z,101042.94
2022-11-25T14:17:12.345Z,101047.03
2022-11-25T14:20:42.549Z,101047.56
2022-11-25T14:24:13.168Z,101051.13
2022-11-25T14:27:33.787Z,101059.72
2022-11-25T14:30:53.408Z,101061.59
2022-11-25T14:34:05.751Z,101059.12
2022-11-25T14:37:17.798Z,101061.56
2022-11-25T14:40:53.055Z,101058.16
2022-11-25T14:44:07.541Z,101061.00
2022-11-25T14:47:11.588Z,101066.59
2022-11-25T14:50:34.243Z,101061.06
2022-11-25T14:53:47.820Z,101062.38
2022-11-25T14:56:53.372Z,101064.56
2022-11-25T15:00:02.849Z,101066.97
2022-11-25T15:03:23.542Z,101063.31
2022-11-25T15:06:39.444Z,101072.13
2022-11-25T15:09:51.596Z,101069.56
2022-11-25T15:13:00.708Z,101069.84
2022-11-25T15:16:14.186Z,101073.31
2022-11-25T15:19:21.827Z,101072.50
2022-11-25T15:22:27.519Z,101076.16
2022-11-25T15:25:32.052Z,101084.03
2022-11-25T15:28:40.485Z,101078.00
2022-11-25T15:31:57.646Z,101087.56
2022-11-25T15:35:05.286Z,101092.91
2022-11-25T15:38:20.643Z,101100.19
2022-11-25T15:41:35.949Z,101099.72
2022-11-25T15:44:56.563Z,101100.44
2022-11-25T15:48:05.575Z,101101.66
2022-11-25T15:51:57.422Z,101098.37
2022-11-25T15:55:07.419Z,101088.13
2022-11-25T15:58:20.347Z,101089.62
2022-11-25T16:01:30.621Z,101086.03
2022-11-25T16:04:53.494Z,101087.03
2022-11-25T16:07:56.327Z,101077.28
2022-11-25T16:11:17.196Z,101082.38
2022-11-25T16:14:29.515Z,101078.81
2022-11-25T16:17:39.938Z,101086.28
2022-11-25T16:20:55.677Z,101090.06
2022-11-25T16:24:42.529Z,101090.84
2022-11-25T16:27:49.329Z,101098.22
2022-11-25T16:30:57.834Z,101097.72
2022-11-25T16:34:14.494Z,101101.00
2022-11-25T16:37:17.550Z,101103.78
2022-11-25T16:40:33.451Z,101110.66
2022-11-25T16:43:47.914Z,101109.16
2022-11-25T16:46:51.914Z,101115.72
2022-11-25T16:49:57.827Z,101122.97
2022-11-25T16:53:01.618Z,101124.66
2022-11-25T16:56:27.572Z,101128.25
2022-11-25T16:59:38.966Z,101124.78
2022-11-25T17:02:51.019Z,101131.41
2022-11-25T17:06:00.486Z,101132.69
2022-11-25T17:09:06.025Z,101139.16
2022-11-25T17:12:31.601Z,101137.56
2022-11-25T17:15:39.751Z,101143.53
2022-11-25T17:18:44.778Z,101146.81
2022-11-25T17:21:49.523Z,101139.75
2022-11-25T17:24:54.038Z,101143.16
2022-11-25T17:28:00.227Z,101145.75
2022-11-25T17:31:09.894Z,101149.31
2022-11-25T17:34:17.499Z,101143.06
2022-11-25T17:37:25.009Z,101149.03
2022-11-25T17:40:33.994Z,101145.66
2022-11-25T17:43:42.251Z,101152.13
2022-11-25T17:46:53.447Z,101150.53
2022-11-25T17:50:17.529Z,101151.72
2022-11-25T17:53:35.474Z,101161.41
2022-11-25T17:56:51.785Z,101166.53
2022-11-25T18:00:00.439Z,101163.13
2022-11-25T18:03:20.496Z,101167.47
2022-11-25T18:06:31.618Z,101165.94
2022-11-25T18:09:45.583Z,101172.72
2022-11-25T18:12:56.820Z,101177.22
2022-11-25T18:16:03.677Z,101185.22
2022-11-25T18:19:12.470Z,101181.09
2022-11-25T18:22:20.706Z,101192.09
2022-11-25T18:25:37.676Z,101197.72
2022-11-25T18:28:44.349Z,101201.09
2022-11-25T18:31:59.614Z,101199.19
2022-11-25T18:35:24.453Z,101207.38
2022-11-25T18:38:41.016Z,101212.44
2022-11-25T18:42:00.074Z,101210.53
2022-11-25T18:45:31.561Z,101228.94
2022-11-25T18:48:37.231Z,101229.28
2022-11-25T18:51:46.578Z,101229.16
2022-11-25T18:54:52.646Z,101236.78
2022-11-25T18:58:20.846Z,101239.56
2022-11-25T19:01:29.466Z,101242.25
2022-11-25T19:04:32.993Z,101247.31
2022-11-25T19:07:46.535Z,101249.00
2022-11-25T19:11:03.796Z,101253.25
2022-11-25T19:14:15.372Z,101249.09
2022-11-25T19:17:24.704Z,101267.59
2022-11-25T19:20:30.600Z,101276.31
2022-11-25T19:23:40.901Z,101275.31
2022-11-25T19:26:48.225Z,101271.72
2022-11-25T19:30:04.617Z,101269.81
2022-11-25T19:33:20.349Z,101275.62
2022-11-25T19:36:30.869Z,101273.59
2022-11-25T19:39:49.262Z,101278.06
2022-11-25T19:43:00.428Z,101274.91
2022-11-25T19:46:03.743Z,101281.00
2022-11-25T19:49:08.471Z,101287.25
2022-11-25T19:52:22.717Z,101292.03
2022-11-25T19:55:31.551Z,101295.56
2022-11-25T19:58:38.999Z,101302.28
2022-11-25T20:01:46.881Z,101308.50
2022-11-25T20:04:57.512Z,101302.09
2022-11-25T20:08:08.460Z,101310.25
2022-11-25T20:11:24.696Z,101314.00
2022-11-25T20:14:35.819Z,101318.03
2022-11-25T20:17:49.762Z,101303.63
2022-11-25T20:21:06.105Z,101322.28
2022-11-25T20:24:23.411Z,101329.22
2022-11-25T20:27:29.525Z,101339.38
2022-11-25T20:30:33.781Z,101345.31
2022-11-25T20:33:47.468Z,101344.53
2022-11-25T20:36:51.841Z,101334.50
2022-11-25T20:40:00.372Z,101356.63
2022-11-25T20:43:12.706Z,101351.13
2022-11-25T20:46:24.614Z,101355.19
2022-11-25T20:49:29.539Z,101357.50
2022-11-25T20:52:41.513Z,101353.78
2022-11-25T20:55:49.505Z,101352.63
2022-11-25T20:58:53.778Z,101363.41
2022-11-25T21:01:57.895Z,101363.13
2022-11-25T21:05:02.667Z,101362.59
2022-11-25T21:08:23.367Z,101359.53
2022-11-25T21:11:28.628Z,101363.16
2022-11-25T21:14:36.097Z,101369.09
2022-11-25T21:17:40.914Z,101363.34
2022-11-25T21:20:47.837Z,101365.09
2022-11-25T21:23:59.593Z,101363.53
2022-11-25T21:27:15.629Z,101364.91
2022-11-25T21:30:20.225Z,101364.19
2022-11-25T21:33:31.583Z,101363.59
2022-11-25T21:36:45.702Z,101360.62
2022-11-25T21:39:59.761Z,101369.37
2022-11-25T21:43:25.545Z,101363.47
2022-11-25T21:46:28.981Z,101366.00
2022-11-25T21:49:32.140Z,101372.03
2022-11-25T21:52:36.060Z,101366.09
2022-11-25T21:55:42.414Z,101367.12
2022-11-25T21:58:53.075Z,101373.31
2022-11-25T22:01:57.544Z,101376.53
2022-11-25T22:05:01.628Z,101382.69
2022-11-25T22:08:11.878Z,101370.84
2022-11-25T22:11:18.183Z,101373.41
2022-11-25T22:14:34.148Z,101376.28
2022-11-25T22:17:38.523Z,101377.84
2022-11-25T22:20:41.394Z,101372.94
2022-11-25T22:23:46.409Z,101378.97
2022-11-25T22:26:57.816Z,101366.75
2022-11-25T22:30:15.640Z,101375.03
2022-11-25T22:33:26.131Z,101374.66
2022-11-25T22:36:37.473Z,101378.38
2022-11-25T22:39:41.546Z,101389.16
2022-11-25T22:42:49.264Z,101393.78
2022-11-25T22:46:00.498Z,101391.56
2022-11-25T22:49:40.060Z,101395.84
2022-11-25T22:52:43.922Z,101399.56
2022-11-25T22:55:47.261Z,101410.66
2022-11-25T22:59:00.423Z,101411.50
2022-11-25T23:02:04.051Z,101418.69
2022-11-25T23:05:35.897Z,101415.72
2022-11-25T23:08:39.944Z,101425.31
2022-11-25T23:11:44.612Z,101429.16
2022-11-25T23:14:48.746Z,101418.22
2022-11-25T23:17:57.884Z,101420.94
2022-11-25T23:21:16.880Z,101421.19
2022-11-25T23:24:20.589Z,101432.88
2022-11-25T23:27:24.126Z,101432.00
2022-11-25T23:30:33.964Z,101422.84
2022-11-25T23:33:38.459Z,101422.84
2022-11-25T23:36:45.197Z,101426.44
2022-11-25T23:39:52.540Z,101423.84
2022-11-25T23:43:00.558Z,101417.16
2022-11-25T23:46:03.885Z,101427.97
2022-11-25T23:49:22.476Z,101429.00
2022-11-25T23:52:28.088Z,101436.19
2022-11-25T23:55:38.625Z,101438.41
2022-11-25T23:58:41.500Z,101448.19
